createdAt,value
2023-05-05T00:01:22.064Z,9.07
2023-05-05T00:06:25.554Z,14.27
2023-05-05T00:11:28.730Z,16.63
2023-05-05T00:16:32.567Z,13.05
2023-05-05T00:21:36.263Z,7.75
2023-05-05T00:26:39.814Z,7.13
2023-05-05T00:31:43.360Z,5.72
2023-05-05T00:36:47.393Z,5.32
2023-05-05T00:41:51.099Z,6.45
2023-05-05T00:46:54.256Z,7.78
2023-05-05T00:51:58.721Z,4.85
2023-05-05T00:57:05.091Z,5.45
2023-05-05T01:02:09.859Z,6.47
2023-05-05T01:07:35.347Z,9.32
2023-05-05T01:12:54.447Z,5.82
2023-05-05T01:18:07.172Z,4.18
2023-05-05T01:23:19.508Z,5.45
2023-05-05T01:28:55.552Z,5.50
2023-05-05T01:34:06.646Z,7.53
2023-05-05T01:39:16.490Z,9.30
2023-05-05T01:44:20.735Z,5.28
2023-05-05T01:49:25.124Z,4.55
2023-05-05T01:54:30.124Z,4.57
2023-05-05T01:59:35.418Z,5.78
2023-05-05T02:04:42.851Z,4.63
2023-05-05T02:09:47.416Z,6.32
2023-05-05T02:14:53.318Z,10.38
2023-05-05T02:19:59.226Z,4.60
2023-05-05T02:25:02.596Z,5.40
2023-05-05T02:30:11.311Z,6.10
2023-05-05T02:35:18.584Z,5.28
2023-05-05T02:40:27.150Z,7.20
2023-05-05T02:45:32.046Z,6.00
2023-05-05T02:50:36.578Z,9.82
2023-05-05T02:55:57.090Z,7.13
2023-05-05T03:01:17.270Z,9.75
2023-05-05T03:06:23.292Z,7.22
2023-05-05T03:16:37.083Z,8.68
2023-05-05T03:21:44.615Z,8.57
2023-05-05T03:26:49.995Z,8.73
2023-05-05T03:31:57.302Z,8.93
2023-05-05T03:37:01.476Z,13.65
2023-05-05T03:42:05.349Z,6.85
2023-05-05T03:47:11.690Z,8.33
2023-05-05T03:52:17.282Z,6.75
2023-05-05T03:57:21.957Z,9.07
2023-05-05T04:02:26.717Z,5.43
2023-05-05T04:07:31.088Z,5.20
2023-05-05T04:12:44.369Z,7.95
2023-05-05T04:17:53.720Z,5.45
2023-05-05T04:22:57.797Z,5.30
2023-05-05T04:28:01.829Z,7.93
2023-05-05T04:33:05.631Z,8.30
2023-05-05T04:38:10.350Z,6.38
2023-05-05T04:43:13.988Z,5.18
2023-05-05T04:48:18.085Z,9.85
2023-05-05T04:53:21.877Z,5.93
2023-05-05T04:58:26.086Z,9.75
2023-05-05T05:03:29.574Z,9.60
2023-05-05T05:08:32.780Z,6.90
2023-05-05T05:13:37.133Z,6.68
2023-05-05T05:18:41.657Z,8.43
2023-05-05T05:23:45.315Z,7.32
2023-05-05T05:28:49.405Z,12.60
2023-05-05T05:33:52.904Z,11.00
2023-05-05T05:38:56.714Z,9.48
2023-05-05T05:44:00.754Z,9.07
2023-05-05T05:49:05.280Z,10.32
2023-05-05T05:54:08.826Z,7.63
2023-05-05T05:59:13.010Z,5.78
2023-05-05T06:04:18.429Z,6.40
2023-05-05T06:09:23.147Z,4.28
2023-05-05T06:14:27.099Z,6.00
2023-05-05T06:19:30.858Z,7.07
2023-05-05T06:24:34.403Z,8.27
2023-05-05T06:29:39.007Z,3.15
2023-05-05T06:34:44.983Z,4.47
2023-05-05T06:39:48.301Z,4.30
2023-05-05T06:44:51.955Z,3.67
2023-05-05T06:49:55.832Z,2.13
2023-05-05T06:55:00.013Z,3.60
2023-05-05T07:00:06.182Z,3.50
2023-05-05T07:05:09.775Z,3.72
2023-05-05T07:10:13.460Z,2.38
2023-05-05T07:15:27.556Z,5.00
2023-05-05T07:20:33.371Z,4.00
2023-05-05T07:25:37.733Z,4.50
2023-05-05T07:30:41.024Z,3.60
2023-05-05T07:35:44.180Z,3.65
2023-05-05T07:40:47.780Z,3.95
2023-05-05T07:45:51.607Z,5.57
2023-05-05T07:50:55.277Z,5.03
2023-05-05T07:55:58.870Z,4.75
2023-05-05T08:01:03.100Z,8.23
2023-05-05T08:06:12.385Z,4.90
2023-05-05T08:11:16.872Z,3.92
2023-05-05T08:16:20.595Z,4.43
2023-05-05T08:21:24.247Z,4.35
2023-05-05T08:26:27.903Z,4.43
2023-05-05T08:31:37.486Z,3.78
2023-05-05T08:36:41.563Z,4.25
2023-05-05T08:41:44.814Z,5.93
2023-05-05T08:46:50.669Z,5.40
2023-05-05T08:51:55.346Z,3.78
2023-05-05T08:57:02.223Z,5.70
2023-05-05T09:02:07.585Z,5.88
2023-05-05T09:12:16.246Z,4.63
2023-05-05T09:17:25.139Z,9.73
2023-05-05T09:22:41.527Z,3.83
2023-05-05T09:27:48.242Z,3.83
2023-05-05T09:32:55.883Z,5.28
2023-05-05T09:38:12.601Z,3.67
2023-05-05T09:43:17.991Z,4.00
2023-05-05T09:48:29.534Z,3.85
2023-05-05T09:53:43.227Z,3.25
2023-05-05T09:58:46.753Z,5.82
2023-05-05T10:03:53.048Z,5.70
2023-05-05T10:09:02.834Z,4.00
2023-05-05T10:14:08.696Z,4.10
2023-05-05T10:19:14.895Z,5.72
2023-05-05T10:24:51.132Z,10.93
2023-05-05T10:30:09.066Z,6.28
2023-05-05T10:35:17.982Z,7.65
2023-05-05T10:40:23.024Z,6.22
2023-05-05T10:45:27.743Z,7.55
2023-05-05T10:50:36.898Z,7.00
2023-05-05T10:55:48.827Z,7.43
2023-05-05T11:00:52.153Z,7.80
2023-05-05T11:06:05.208Z,5.70
2023-05-05T11:11:12.878Z,6.35
2023-05-05T11:16:46.049Z,7.00
2023-05-05T11:22:02.595Z,4.95
2023-05-05T11:27:07.300Z,7.40
2023-05-05T11:32:14.937Z,8.77
2023-05-05T11:37:18.476Z,6.65
2023-05-05T11:42:25.080Z,5.70
2023-05-05T11:47:30.141Z,6.30
2023-05-05T11:52:34.811Z,6.50
2023-05-05T11:57:38.705Z,6.32
2023-05-05T12:02:42.589Z,9.70
2023-05-05T12:07:45.886Z,8.40
2023-05-05T12:12:50.117Z,7.68
2023-05-05T12:17:53.579Z,6.65
2023-05-05T12:23:02.519Z,7.07
2023-05-05T12:28:07.908Z,6.00
2023-05-05T12:33:12.080Z,6.63
2023-05-05T12:38:16.723Z,4.90
2023-05-05T12:43:34.495Z,7.22
2023-05-05T12:48:40.026Z,8.52
2023-05-05T12:53:43.981Z,4.13
2023-05-05T12:58:52.380Z,7.45
2023-05-05T13:04:05.850Z,6.22
2023-05-05T13:09:12.563Z,6.70
2023-05-05T13:14:16.716Z,4.68
2023-05-05T13:19:19.969Z,5.78
2023-05-05T13:24:38.189Z,4.13
2023-05-05T13:29:49.282Z,4.03
2023-05-05T13:34:52.640Z,4.88
2023-05-05T13:39:59.774Z,4.15
2023-05-05T13:45:03.373Z,8.07
2023-05-05T13:50:08.180Z,4.43
2023-05-05T13:55:11.383Z,6.00
2023-05-05T14:00:15.330Z,5.13
2023-05-05T14:05:20.356Z,6.63
2023-05-05T14:10:23.489Z,4.63
2023-05-05T14:15:27.115Z,3.55
2023-05-05T14:20:31.370Z,3.83
2023-05-05T14:25:35.228Z,3.95
2023-05-05T14:30:38.702Z,4.93
2023-05-05T14:35:41.919Z,5.13
2023-05-05T14:40:45.640Z,6.85
2023-05-05T14:45:49.804Z,5.03
2023-05-05T14:50:53.362Z,5.15
2023-05-05T14:55:57.226Z,7.30
2023-05-05T15:01:00.794Z,4.80
2023-05-05T15:06:05.282Z,4.70
2023-05-05T15:11:08.439Z,5.60
2023-05-05T15:16:11.668Z,4.45
2023-05-05T15:21:14.772Z,4.25
2023-05-05T15:26:17.805Z,8.18
2023-05-05T15:31:20.917Z,5.60
2023-05-05T15:36:24.893Z,8.82
2023-05-05T15:41:29.829Z,4.57
2023-05-05T15:46:35.700Z,4.63
2023-05-05T15:51:38.874Z,8.75
2023-05-05T15:56:41.881Z,4.90
2023-05-05T16:01:44.974Z,8.32
2023-05-05T16:06:47.990Z,7.75
2023-05-05T16:11:53.970Z,7.60
2023-05-05T16:16:57.163Z,8.38
2023-05-05T16:22:00.553Z,11.77
2023-05-05T16:27:04.057Z,5.95
2023-05-05T16:32:07.229Z,11.23
2023-05-05T16:37:10.209Z,8.82
2023-05-05T16:42:13.668Z,5.25
2023-05-05T16:47:16.674Z,7.93
2023-05-05T16:52:19.718Z,7.63
2023-05-05T16:57:23.497Z,8.50
2023-05-05T17:02:26.738Z,6.72
2023-05-05T17:07:29.955Z,7.28
2023-05-05T17:12:35.087Z,6.15
2023-05-05T17:17:38.790Z,9.73
2023-05-05T17:22:42.976Z,11.27
2023-05-05T17:27:46.068Z,7.55
2023-05-05T17:32:49.301Z,8.10
2023-05-05T17:37:52.356Z,6.15
2023-05-05T17:42:55.452Z,6.55
2023-05-05T17:47:58.720Z,5.55
2023-05-05T17:53:01.992Z,5.03
2023-05-05T17:58:05.177Z,4.25
2023-05-05T18:03:08.382Z,5.55
2023-05-05T18:08:11.487Z,8.93
2023-05-05T18:13:14.584Z,7.97
2023-05-05T18:18:17.905Z,10.68
2023-05-05T18:23:21.383Z,8.35
2023-05-05T18:28:25.361Z,7.85
2023-05-05T18:33:29.619Z,7.82
2023-05-05T18:38:34.180Z,9.95
2023-05-05T18:43:38.074Z,10.63
2023-05-05T18:48:42.080Z,6.25
2023-05-05T18:53:45.680Z,11.88
2023-05-05T18:58:49.389Z,9.00
2023-05-05T19:03:52.575Z,8.25
2023-05-05T19:08:57.286Z,7.05
2023-05-05T19:14:01.594Z,7.55
2023-05-05T19:19:05.448Z,6.10
2023-05-05T19:24:09.973Z,6.72
2023-05-05T19:29:13.685Z,8.43
2023-05-05T19:34:17.190Z,8.43
2023-05-05T19:39:20.880Z,6.10
2023-05-05T19:44:25.036Z,8.98
2023-05-05T19:49:28.661Z,8.05
2023-05-05T19:54:32.032Z,9.25
2023-05-05T19:59:35.705Z,8.32
2023-05-05T20:04:39.209Z,9.35
2023-05-05T20:09:43.291Z,9.02
2023-05-05T20:14:47.303Z,8.80
2023-05-05T20:19:50.916Z,6.70
2023-05-05T20:24:55.198Z,6.65
2023-05-05T20:29:59.184Z,7.13
2023-05-05T20:35:03.292Z,8.90
2023-05-05T20:40:08.098Z,6.90
2023-05-05T20:45:12.791Z,9.38
2023-05-05T20:50:20.626Z,8.45
2023-05-05T20:55:24.175Z,6.60
2023-05-05T21:00:27.737Z,8.07
2023-05-05T21:05:31.907Z,9.65
2023-05-05T21:10:35.064Z,11.23
2023-05-05T21:15:38.801Z,11.48
2023-05-05T21:20:42.782Z,13.25
2023-05-05T21:25:46.102Z,12.63
2023-05-05T21:35:59.804Z,14.23
2023-05-05T21:41:04.267Z,27.00
2023-05-05T21:46:08.523Z,29.10
2023-05-05T21:51:12.423Z,27.58
2023-05-05T21:56:15.977Z,35.28
2023-05-05T22:01:19.117Z,31.20
2023-05-05T22:06:22.924Z,34.42
2023-05-05T22:11:26.553Z,23.92
2023-05-05T22:16:30.478Z,21.98
2023-05-05T22:21:34.023Z,19.42
2023-05-05T22:26:43.321Z,22.20
2023-05-05T22:31:46.614Z,21.55
2023-05-05T22:36:50.720Z,22.13
2023-05-05T22:41:54.777Z,35.90
2023-05-05T22:46:58.931Z,37.15
2023-05-05T22:52:02.992Z,21.70
2023-05-05T22:57:06.108Z,23.45
2023-05-05T23:02:09.765Z,18.88
2023-05-05T23:07:14.405Z,15.57
2023-05-05T23:12:17.842Z,15.32
2023-05-05T23:17:21.514Z,14.23
2023-05-05T23:22:25.153Z,11.60
2023-05-05T23:27:28.683Z,11.13
2023-05-05T23:32:32.265Z,11.40
2023-05-05T23:37:35.573Z,9.45
2023-05-05T23:42:39.190Z,12.20
2023-05-05T23:47:42.727Z,11.20
2023-05-05T23:52:46.640Z,13.13
2023-05-05T23:57:52.485Z,12.35
